UAE502 OMDB-VABB
Flight info
| Callsign | UAE502 |
|---|---|
| Flight time | 2h 50m |
| Altitude | 37000 |
| Route | IVURO M677 LALDO B505 NADSO A777 VAXIM L301 KARKU M638 EXOLU POKON2A |
| Aircraft | A359/H-SDE2E3GHIJ3J4J5LM1ORWXY/LB1D1 |
Departure
| Time | 2026-04-26 17:13 |
|---|---|
| Airport | Dubai International Airport (OMDB) |
Arrival
| Time | 2026-04-26 20:03 |
|---|---|
| Airport | Chhatrapati Shivaji Maharaj International Airport (VABB) |
| Time | Latitude | Longitude | Altitude | Speed | Heading |
|---|---|---|---|---|---|
| 2026-04-26 16:25 | 25.25086 | 55.35926 | 25 ft | 0 kts | 210° |
| 2026-04-26 16:55 | 25.25090 | 55.35929 | 25 ft | 2 kts | 210° |
| 2026-04-26 16:55 | 25.25105 | 55.35938 | 25 ft | 2 kts | 210° |
| 2026-04-26 16:55 | 25.25119 | 55.35947 | 25 ft | 2 kts | 210° |
| 2026-04-26 16:56 | 25.25143 | 55.35970 | 28 ft | 2 kts | 269° |
| 2026-04-26 16:56 | 25.25142 | 55.35981 | 28 ft | 0 kts | 306° |
| 2026-04-26 17:03 | 25.25146 | 55.35974 | 28 ft | 2 kts | 304° |
| 2026-04-26 17:03 | 25.25168 | 55.35949 | 23 ft | 6 kts | 327° |
| 2026-04-26 17:03 | 25.25206 | 55.35905 | 21 ft | 10 kts | 306° |
| 2026-04-26 17:03 | 25.25249 | 55.35827 | 20 ft | 14 kts | 299° |
| 2026-04-26 17:04 | 25.25306 | 55.35723 | 19 ft | 17 kts | 301° |
| 2026-04-26 17:04 | 25.25377 | 55.35599 | 19 ft | 20 kts | 302° |
| 2026-04-26 17:04 | 25.25455 | 55.35458 | 19 ft | 22 kts | 301° |
| 2026-04-26 17:04 | 25.25539 | 55.35307 | 21 ft | 24 kts | 301° |
| 2026-04-26 17:05 | 25.25576 | 55.35240 | 25 ft | 0 kts | 301° |
| 2026-04-26 17:05 | 25.25585 | 55.35222 | 23 ft | 6 kts | 301° |
| 2026-04-26 17:05 | 25.25614 | 55.35174 | 27 ft | 8 kts | 308° |
| 2026-04-26 17:05 | 25.25666 | 55.35161 | 27 ft | 9 kts | 13° |
| 2026-04-26 17:06 | 25.25730 | 55.35195 | 25 ft | 13 kts | 30° |
| 2026-04-26 17:06 | 25.25824 | 55.35257 | 21 ft | 17 kts | 31° |
| 2026-04-26 17:06 | 25.25929 | 55.35330 | 27 ft | 17 kts | 39° |
| 2026-04-26 17:06 | 25.25974 | 55.35389 | 29 ft | 10 kts | 62° |
| 2026-04-26 17:07 | 25.25991 | 55.35478 | 28 ft | 14 kts | 92° |
| 2026-04-26 17:07 | 25.25958 | 55.35585 | 29 ft | 16 kts | 120° |
| 2026-04-26 17:07 | 25.25894 | 55.35702 | 23 ft | 20 kts | 122° |
| 2026-04-26 17:07 | 25.25816 | 55.35839 | 23 ft | 22 kts | 122° |
| 2026-04-26 17:08 | 25.25731 | 55.35991 | 29 ft | 24 kts | 122° |
| 2026-04-26 17:08 | 25.25643 | 55.36149 | 28 ft | 24 kts | 121° |
| 2026-04-26 17:08 | 25.25553 | 55.36313 | 28 ft | 27 kts | 121° |
| 2026-04-26 17:08 | 25.25453 | 55.36495 | 29 ft | 28 kts | 122° |
| 2026-04-26 17:09 | 25.25358 | 55.36663 | 28 ft | 20 kts | 122° |
| 2026-04-26 17:09 | 25.25307 | 55.36754 | 30 ft | 21 kts | 122° |
| 2026-04-26 17:09 | 25.25206 | 55.36940 | 33 ft | 22 kts | 121° |
| 2026-04-26 17:09 | 25.25126 | 55.37085 | 39 ft | 22 kts | 122° |
| 2026-04-26 17:10 | 25.25046 | 55.37229 | 41 ft | 23 kts | 120° |
| 2026-04-26 17:10 | 25.24963 | 55.37382 | 44 ft | 23 kts | 122° |
| 2026-04-26 17:10 | 25.24874 | 55.37542 | 43 ft | 26 kts | 119° |
| 2026-04-26 17:10 | 25.24779 | 55.37712 | 46 ft | 27 kts | 121° |
| 2026-04-26 17:11 | 25.24686 | 55.37880 | 46 ft | 10 kts | 121° |
| 2026-04-26 17:11 | 25.24674 | 55.37908 | 46 ft | 9 kts | 107° |
| 2026-04-26 17:11 | 25.24705 | 55.37976 | 46 ft | 11 kts | 38° |
| 2026-04-26 17:11 | 25.24784 | 55.38013 | 46 ft | 13 kts | 356° |
| 2026-04-26 17:12 | 25.24925 | 55.37810 | 46 ft | 46 kts | 302° |
| 2026-04-26 17:12 | 25.25235 | 55.37251 | 45 ft | 122 kts | 301° |
| 2026-04-26 17:13 | 25.26475 | 55.35015 | 694 ft | 193 kts | 301° |
| 2026-04-26 17:13 | 25.27203 | 55.33670 | 1449 ft | 211 kts | 300° |
| 2026-04-26 17:13 | 25.28779 | 55.30693 | 2974 ft | 233 kts | 300° |
| 2026-04-26 17:14 | 25.29661 | 55.29172 | 3681 ft | 237 kts | 306° |
| 2026-04-26 17:14 | 25.32781 | 55.27813 | 4116 ft | 265 kts | 11° |
| 2026-04-26 17:14 | 25.34532 | 55.28430 | 4051 ft | 265 kts | 19° |
| 2026-04-26 17:15 | 25.38124 | 55.29341 | 4002 ft | 265 kts | 8° |
| 2026-04-26 17:15 | 25.39863 | 55.29980 | 3999 ft | 266 kts | 30° |
| 2026-04-26 17:15 | 25.41209 | 55.31374 | 3995 ft | 265 kts | 51° |
| 2026-04-26 17:16 | 25.42330 | 55.32994 | 4004 ft | 266 kts | 52° |
| 2026-04-26 17:16 | 25.43462 | 55.34618 | 4001 ft | 266 kts | 51° |
| 2026-04-26 17:16 | 25.44594 | 55.36205 | 4172 ft | 266 kts | 51° |
| 2026-04-26 17:16 | 25.45707 | 55.37887 | 4671 ft | 270 kts | 59° |
| 2026-04-26 17:17 | 25.46374 | 55.39823 | 5459 ft | 270 kts | 80° |
| 2026-04-26 17:17 | 25.46357 | 55.41868 | 6209 ft | 271 kts | 98° |
| 2026-04-26 17:17 | 25.46018 | 55.43933 | 6755 ft | 275 kts | 101° |
| 2026-04-26 17:17 | 25.45637 | 55.46014 | 6974 ft | 277 kts | 101° |
| 2026-04-26 17:18 | 25.45248 | 55.48134 | 7012 ft | 278 kts | 101° |
| 2026-04-26 17:18 | 25.44869 | 55.50203 | 7005 ft | 278 kts | 101° |
| 2026-04-26 17:18 | 25.44484 | 55.52304 | 6999 ft | 278 kts | 101° |
| 2026-04-26 17:18 | 25.44100 | 55.54399 | 7002 ft | 278 kts | 101° |
| 2026-04-26 17:19 | 25.43328 | 55.58603 | 7001 ft | 278 kts | 101° |
| 2026-04-26 17:19 | 25.42943 | 55.60699 | 7003 ft | 278 kts | 101° |
| 2026-04-26 17:19 | 25.42557 | 55.62798 | 6998 ft | 279 kts | 101° |
| 2026-04-26 17:20 | 25.42171 | 55.64896 | 6998 ft | 279 kts | 101° |
| 2026-04-26 17:20 | 25.42040 | 55.65609 | 6997 ft | 279 kts | 101° |
| 2026-04-26 17:20 | 25.41395 | 55.69107 | 6999 ft | 279 kts | 101° |
| 2026-04-26 17:20 | 25.41007 | 55.71211 | 7002 ft | 279 kts | 102° |
| 2026-04-26 17:21 | 25.40620 | 55.73309 | 7000 ft | 279 kts | 102° |
| 2026-04-26 17:21 | 25.40233 | 55.75403 | 6998 ft | 279 kts | 102° |
| 2026-04-26 17:21 | 25.39843 | 55.77512 | 7000 ft | 279 kts | 102° |
| 2026-04-26 17:21 | 25.39458 | 55.79589 | 6997 ft | 279 kts | 102° |
| 2026-04-26 17:22 | 25.39070 | 55.81684 | 7006 ft | 279 kts | 102° |
| 2026-04-26 17:22 | 25.38681 | 55.83784 | 6998 ft | 279 kts | 102° |
| 2026-04-26 17:22 | 25.38290 | 55.85892 | 7006 ft | 279 kts | 102° |
| 2026-04-26 17:22 | 25.37901 | 55.87986 | 7091 ft | 278 kts | 102° |
| 2026-04-26 17:23 | 25.37508 | 55.90098 | 7473 ft | 281 kts | 102° |
| 2026-04-26 17:23 | 25.37113 | 55.92224 | 8176 ft | 282 kts | 102° |
| 2026-04-26 17:23 | 25.36722 | 55.94325 | 8923 ft | 284 kts | 102° |
| 2026-04-26 17:23 | 25.36316 | 55.96500 | 9643 ft | 286 kts | 102° |
| 2026-04-26 17:24 | 25.35917 | 55.98639 | 10330 ft | 289 kts | 102° |
| 2026-04-26 17:24 | 25.35510 | 56.00821 | 11006 ft | 292 kts | 102° |
| 2026-04-26 17:24 | 25.35097 | 56.03035 | 11673 ft | 295 kts | 102° |
| 2026-04-26 17:24 | 25.34681 | 56.05260 | 12331 ft | 298 kts | 102° |
| 2026-04-26 17:25 | 25.34257 | 56.07526 | 12975 ft | 301 kts | 102° |
| 2026-04-26 17:25 | 25.33830 | 56.09802 | 13599 ft | 304 kts | 102° |
| 2026-04-26 17:25 | 25.33398 | 56.12109 | 14198 ft | 308 kts | 102° |
| 2026-04-26 17:25 | 25.32964 | 56.14435 | 14810 ft | 311 kts | 101° |
| 2026-04-26 17:26 | 25.32617 | 56.16778 | 15416 ft | 313 kts | 97° |
| 2026-04-26 17:26 | 25.32370 | 56.19187 | 16014 ft | 316 kts | 95° |
| 2026-04-26 17:26 | 25.32177 | 56.21620 | 16581 ft | 320 kts | 95° |
| 2026-04-26 17:26 | 25.32001 | 56.24086 | 17154 ft | 323 kts | 94° |
| 2026-04-26 17:27 | 25.31823 | 56.26571 | 17724 ft | 326 kts | 95° |
| 2026-04-26 17:27 | 25.31635 | 56.29074 | 18300 ft | 328 kts | 95° |
| 2026-04-26 17:27 | 25.31435 | 56.31602 | 18865 ft | 331 kts | 95° |
| 2026-04-26 17:27 | 25.31227 | 56.34151 | 19424 ft | 333 kts | 95° |
| 2026-04-26 17:28 | 25.31013 | 56.36718 | 19992 ft | 336 kts | 95° |
| 2026-04-26 17:28 | 25.30797 | 56.39268 | 20531 ft | 338 kts | 95° |
| 2026-04-26 17:28 | 25.30605 | 56.41865 | 21058 ft | 341 kts | 93° |
| 2026-04-26 17:28 | 25.30505 | 56.44500 | 21574 ft | 343 kts | 91° |
| 2026-04-26 17:29 | 25.30454 | 56.47148 | 22076 ft | 346 kts | 91° |
| 2026-04-26 17:29 | 25.30440 | 56.48048 | 22238 ft | 347 kts | 91° |
| 2026-04-26 17:29 | 25.30383 | 56.51605 | 22878 ft | 350 kts | 91° |
| 2026-04-26 17:29 | 25.30305 | 56.55225 | 23505 ft | 354 kts | 91° |
| 2026-04-26 17:30 | 25.30227 | 56.57025 | 23799 ft | 356 kts | 95° |
| 2026-04-26 17:30 | 25.29881 | 56.59757 | 24260 ft | 358 kts | 102° |
| 2026-04-26 17:30 | 25.29214 | 56.62418 | 24710 ft | 361 kts | 110° |
| 2026-04-26 17:30 | 25.28331 | 56.65019 | 25158 ft | 363 kts | 112° |
| 2026-04-26 17:31 | 25.27371 | 56.67610 | 25596 ft | 366 kts | 113° |
| 2026-04-26 17:31 | 25.26371 | 56.70208 | 26038 ft | 369 kts | 113° |
| 2026-04-26 17:31 | 25.25364 | 56.72799 | 26489 ft | 371 kts | 113° |
| 2026-04-26 17:31 | 25.24344 | 56.75433 | 26934 ft | 374 kts | 113° |
| 2026-04-26 17:32 | 25.23321 | 56.78091 | 27396 ft | 377 kts | 113° |
| 2026-04-26 17:32 | 25.22300 | 56.80763 | 27847 ft | 379 kts | 113° |
| 2026-04-26 17:32 | 25.21275 | 56.83454 | 28303 ft | 382 kts | 113° |
| 2026-04-26 17:32 | 25.20243 | 56.86170 | 28751 ft | 385 kts | 112° |
| 2026-04-26 17:33 | 25.19201 | 56.88912 | 29191 ft | 387 kts | 113° |
| 2026-04-26 17:33 | 25.18158 | 56.91658 | 29751 ft | 386 kts | 113° |
| 2026-04-26 17:33 | 25.17130 | 56.94360 | 30276 ft | 386 kts | 113° |
| 2026-04-26 17:34 | 25.15053 | 56.99812 | 31291 ft | 385 kts | 113° |
| 2026-04-26 17:34 | 25.14015 | 57.02531 | 31804 ft | 384 kts | 113° |
| 2026-04-26 17:34 | 25.12977 | 57.05251 | 32278 ft | 383 kts | 113° |
| 2026-04-26 17:34 | 25.11941 | 57.07963 | 32740 ft | 382 kts | 113° |
| 2026-04-26 17:35 | 25.10908 | 57.10664 | 33196 ft | 382 kts | 113° |
| 2026-04-26 17:35 | 25.09879 | 57.13355 | 33625 ft | 381 kts | 113° |
| 2026-04-26 17:35 | 25.08860 | 57.16018 | 34028 ft | 381 kts | 113° |
| 2026-04-26 17:35 | 25.07816 | 57.18742 | 34447 ft | 380 kts | 113° |
| 2026-04-26 17:36 | 25.06788 | 57.21424 | 34845 ft | 379 kts | 113° |
| 2026-04-26 17:36 | 25.05776 | 57.24065 | 35216 ft | 379 kts | 113° |
| 2026-04-26 17:36 | 25.04737 | 57.26773 | 35581 ft | 378 kts | 113° |
| 2026-04-26 17:36 | 25.03727 | 57.29403 | 35917 ft | 378 kts | 113° |
| 2026-04-26 17:37 | 25.02697 | 57.32084 | 36241 ft | 377 kts | 113° |
| 2026-04-26 17:37 | 25.01671 | 57.34751 | 36541 ft | 377 kts | 113° |
| 2026-04-26 17:37 | 25.00649 | 57.37409 | 36841 ft | 377 kts | 113° |
| 2026-04-26 17:38 | 24.98568 | 57.42812 | 37009 ft | 390 kts | 113° |
| 2026-04-26 17:38 | 24.97499 | 57.45585 | 37008 ft | 398 kts | 113° |
| 2026-04-26 17:38 | 24.95278 | 57.51341 | 37006 ft | 416 kts | 113° |
| 2026-04-26 17:39 | 24.92976 | 57.57300 | 37005 ft | 434 kts | 113° |
| 2026-04-26 17:39 | 24.90553 | 57.63563 | 37005 ft | 452 kts | 113° |
| 2026-04-26 17:40 | 24.88472 | 57.68932 | 37004 ft | 467 kts | 113° |
| 2026-04-26 17:40 | 24.86735 | 57.73411 | 37004 ft | 479 kts | 113° |
| 2026-04-26 17:40 | 24.85415 | 57.76812 | 37003 ft | 487 kts | 113° |
| 2026-04-26 17:41 | 24.82751 | 57.83660 | 37000 ft | 490 kts | 113° |
| 2026-04-26 17:41 | 24.79864 | 57.90454 | 37000 ft | 490 kts | 116° |
| 2026-04-26 17:42 | 24.76850 | 57.97172 | 37000 ft | 490 kts | 116° |
| 2026-04-26 17:42 | 24.73855 | 58.03918 | 37000 ft | 490 kts | 116° |
| 2026-04-26 17:43 | 24.70891 | 58.10668 | 37000 ft | 490 kts | 116° |
| 2026-04-26 17:43 | 24.67932 | 58.17425 | 37000 ft | 490 kts | 116° |
| 2026-04-26 17:44 | 24.64998 | 58.24114 | 37000 ft | 490 kts | 116° |
| 2026-04-26 17:44 | 24.62032 | 58.30862 | 37000 ft | 490 kts | 116° |
| 2026-04-26 17:45 | 24.59062 | 58.37606 | 37000 ft | 490 kts | 116° |
| 2026-04-26 17:45 | 24.56091 | 58.44343 | 37000 ft | 490 kts | 116° |
| 2026-04-26 17:46 | 24.53125 | 58.51057 | 37000 ft | 490 kts | 116° |
| 2026-04-26 17:46 | 24.50145 | 58.57794 | 37000 ft | 490 kts | 116° |
| 2026-04-26 17:47 | 24.47669 | 58.63386 | 37000 ft | 490 kts | 116° |
| 2026-04-26 17:47 | 24.44185 | 58.71239 | 37000 ft | 490 kts | 116° |
| 2026-04-26 17:48 | 24.41201 | 58.77964 | 37000 ft | 490 kts | 116° |
| 2026-04-26 17:48 | 24.38219 | 58.84681 | 37000 ft | 490 kts | 116° |
| 2026-04-26 17:49 | 24.35247 | 58.91352 | 37000 ft | 490 kts | 116° |
| 2026-04-26 17:49 | 24.32258 | 58.98052 | 37000 ft | 490 kts | 116° |
| 2026-04-26 17:50 | 24.29241 | 59.04810 | 37000 ft | 490 kts | 116° |
| 2026-04-26 17:50 | 24.26266 | 59.11466 | 37000 ft | 490 kts | 116° |
| 2026-04-26 17:51 | 24.23262 | 59.18176 | 37000 ft | 490 kts | 116° |
| 2026-04-26 17:51 | 24.20260 | 59.24874 | 37000 ft | 490 kts | 116° |
| 2026-04-26 17:52 | 24.17248 | 59.31581 | 37000 ft | 490 kts | 116° |
| 2026-04-26 17:52 | 24.14259 | 59.38228 | 37000 ft | 490 kts | 116° |
| 2026-04-26 17:53 | 24.11247 | 59.44920 | 37000 ft | 490 kts | 116° |
| 2026-04-26 17:54 | 24.06725 | 59.54958 | 37000 ft | 490 kts | 116° |
| 2026-04-26 17:54 | 24.03709 | 59.61630 | 37000 ft | 490 kts | 116° |
| 2026-04-26 17:55 | 24.00704 | 59.68263 | 37000 ft | 490 kts | 116° |
| 2026-04-26 17:55 | 23.97675 | 59.74944 | 37000 ft | 490 kts | 116° |
| 2026-04-26 17:56 | 23.94648 | 59.81616 | 37000 ft | 490 kts | 116° |
| 2026-04-26 17:57 | 23.88588 | 59.94943 | 37000 ft | 490 kts | 116° |
| 2026-04-26 17:57 | 23.85551 | 60.01606 | 37000 ft | 490 kts | 116° |
| 2026-04-26 17:58 | 23.79472 | 60.14918 | 37000 ft | 490 kts | 116° |
| 2026-04-26 17:59 | 23.74923 | 60.24856 | 37000 ft | 490 kts | 116° |
| 2026-04-26 17:59 | 23.71875 | 60.31502 | 37000 ft | 490 kts | 116° |
| 2026-04-26 18:00 | 23.68825 | 60.38142 | 37000 ft | 490 kts | 116° |
| 2026-04-26 18:00 | 23.65768 | 60.44790 | 37000 ft | 490 kts | 117° |
| 2026-04-26 18:01 | 23.62713 | 60.51424 | 37000 ft | 490 kts | 117° |
| 2026-04-26 18:01 | 23.59649 | 60.58068 | 37000 ft | 490 kts | 117° |
| 2026-04-26 18:02 | 23.57622 | 60.62458 | 37000 ft | 490 kts | 117° |
| 2026-04-26 18:02 | 23.53549 | 60.71269 | 37000 ft | 490 kts | 117° |
| 2026-04-26 18:03 | 23.50475 | 60.77907 | 37001 ft | 490 kts | 117° |
| 2026-04-26 18:03 | 23.47421 | 60.84493 | 37000 ft | 490 kts | 117° |
| 2026-04-26 18:04 | 23.44316 | 60.91180 | 37001 ft | 490 kts | 117° |
| 2026-04-26 18:05 | 23.39720 | 61.01060 | 37000 ft | 490 kts | 117° |
| 2026-04-26 18:05 | 23.36639 | 61.07673 | 37000 ft | 490 kts | 117° |
| 2026-04-26 18:06 | 23.33562 | 61.14291 | 36998 ft | 490 kts | 116° |
| 2026-04-26 18:06 | 23.31479 | 61.21319 | 37001 ft | 489 kts | 98° |
| 2026-04-26 18:07 | 23.30673 | 61.28678 | 37000 ft | 490 kts | 95° |
| 2026-04-26 18:07 | 23.30057 | 61.36058 | 37000 ft | 490 kts | 95° |
| 2026-04-26 18:08 | 23.29443 | 61.43397 | 37000 ft | 490 kts | 95° |
| 2026-04-26 18:08 | 23.28794 | 61.50783 | 37000 ft | 490 kts | 95° |
| 2026-04-26 18:09 | 23.28129 | 61.58171 | 37000 ft | 490 kts | 96° |
| 2026-04-26 18:09 | 23.27460 | 61.65548 | 37000 ft | 490 kts | 96° |
| 2026-04-26 18:10 | 23.26790 | 61.72916 | 37000 ft | 490 kts | 96° |
| 2026-04-26 18:10 | 23.26116 | 61.80285 | 37000 ft | 490 kts | 96° |
| 2026-04-26 18:11 | 23.25444 | 61.87606 | 37000 ft | 490 kts | 96° |
| 2026-04-26 18:11 | 23.24763 | 61.94983 | 37000 ft | 490 kts | 96° |
| 2026-04-26 18:12 | 23.24080 | 62.02338 | 37000 ft | 490 kts | 96° |
| 2026-04-26 18:12 | 23.23392 | 62.09718 | 37000 ft | 490 kts | 96° |
| 2026-04-26 18:13 | 23.22701 | 62.17086 | 37000 ft | 490 kts | 96° |
| 2026-04-26 18:13 | 23.22007 | 62.24456 | 37000 ft | 490 kts | 96° |
| 2026-04-26 18:14 | 23.21315 | 62.31765 | 37000 ft | 490 kts | 96° |
| 2026-04-26 18:14 | 23.20613 | 62.39141 | 37000 ft | 490 kts | 96° |
| 2026-04-26 18:15 | 23.19905 | 62.46543 | 37000 ft | 490 kts | 96° |
| 2026-04-26 18:15 | 23.19197 | 62.53904 | 37000 ft | 490 kts | 96° |
| 2026-04-26 18:16 | 23.18489 | 62.61229 | 37000 ft | 490 kts | 96° |
| 2026-04-26 18:16 | 23.17420 | 62.72236 | 37000 ft | 490 kts | 96° |
| 2026-04-26 18:17 | 23.16697 | 62.79628 | 37000 ft | 490 kts | 96° |
| 2026-04-26 18:17 | 23.15972 | 62.87007 | 37000 ft | 490 kts | 96° |
| 2026-04-26 18:18 | 23.15368 | 62.93126 | 37000 ft | 490 kts | 96° |
| 2026-04-26 18:18 | 23.14637 | 63.00493 | 37000 ft | 490 kts | 96° |
| 2026-04-26 18:19 | 23.13905 | 63.07848 | 37000 ft | 490 kts | 96° |
| 2026-04-26 18:19 | 23.13169 | 63.15197 | 37000 ft | 490 kts | 96° |
| 2026-04-26 18:20 | 23.12429 | 63.22560 | 37000 ft | 490 kts | 96° |
| 2026-04-26 18:20 | 23.11812 | 63.28669 | 37000 ft | 490 kts | 96° |
| 2026-04-26 18:21 | 23.10939 | 63.37270 | 37000 ft | 490 kts | 96° |
| 2026-04-26 18:21 | 23.10192 | 63.44592 | 37000 ft | 490 kts | 96° |
| 2026-04-26 18:22 | 23.09438 | 63.51955 | 37000 ft | 490 kts | 96° |
| 2026-04-26 18:22 | 23.08681 | 63.59311 | 37000 ft | 490 kts | 96° |
| 2026-04-26 18:23 | 23.07921 | 63.66653 | 37000 ft | 490 kts | 96° |
| 2026-04-26 18:23 | 23.07158 | 63.74002 | 37000 ft | 490 kts | 96° |
| 2026-04-26 18:24 | 23.06391 | 63.81353 | 37000 ft | 490 kts | 96° |
| 2026-04-26 18:24 | 23.05039 | 63.88587 | 37002 ft | 489 kts | 110° |
| 2026-04-26 18:25 | 23.02602 | 63.95436 | 37000 ft | 489 kts | 112° |
| 2026-04-26 18:25 | 22.99999 | 64.02268 | 37000 ft | 490 kts | 112° |
| 2026-04-26 18:26 | 22.97394 | 64.09090 | 37000 ft | 490 kts | 112° |
| 2026-04-26 18:26 | 22.94798 | 64.15939 | 37000 ft | 490 kts | 112° |
| 2026-04-26 18:27 | 22.92214 | 64.22768 | 37000 ft | 490 kts | 112° |
| 2026-04-26 18:27 | 22.89622 | 64.29613 | 37000 ft | 490 kts | 112° |
| 2026-04-26 18:28 | 22.87032 | 64.36440 | 37000 ft | 490 kts | 112° |
| 2026-04-26 18:28 | 22.84438 | 64.43266 | 37000 ft | 490 kts | 112° |
| 2026-04-26 18:29 | 22.81837 | 64.50098 | 37000 ft | 490 kts | 112° |
| 2026-04-26 18:29 | 22.79239 | 64.56914 | 37000 ft | 490 kts | 112° |
| 2026-04-26 18:30 | 22.76634 | 64.63738 | 37000 ft | 490 kts | 112° |
| 2026-04-26 18:30 | 22.74037 | 64.70530 | 37000 ft | 490 kts | 112° |
| 2026-04-26 18:31 | 22.71427 | 64.77348 | 37000 ft | 490 kts | 112° |
| 2026-04-26 18:31 | 22.68825 | 64.84133 | 37000 ft | 490 kts | 112° |
| 2026-04-26 18:32 | 22.66210 | 64.90942 | 37000 ft | 490 kts | 112° |
| 2026-04-26 18:32 | 22.63589 | 64.97757 | 37000 ft | 490 kts | 112° |
| 2026-04-26 18:33 | 22.60968 | 65.04561 | 37000 ft | 490 kts | 112° |
| 2026-04-26 18:33 | 22.58339 | 65.11375 | 37000 ft | 490 kts | 112° |
| 2026-04-26 18:34 | 22.55711 | 65.18178 | 37000 ft | 490 kts | 112° |
| 2026-04-26 18:34 | 22.53098 | 65.24933 | 37000 ft | 490 kts | 112° |
| 2026-04-26 18:35 | 22.50472 | 65.31710 | 37000 ft | 490 kts | 112° |
| 2026-04-26 18:35 | 22.47830 | 65.38519 | 37000 ft | 490 kts | 112° |
| 2026-04-26 18:36 | 22.45190 | 65.45312 | 37000 ft | 490 kts | 113° |
| 2026-04-26 18:36 | 22.42547 | 65.52104 | 37000 ft | 490 kts | 113° |
| 2026-04-26 18:37 | 22.39922 | 65.58842 | 37000 ft | 490 kts | 113° |
| 2026-04-26 18:37 | 22.37270 | 65.65636 | 37000 ft | 490 kts | 113° |
| 2026-04-26 18:38 | 22.34620 | 65.72415 | 37000 ft | 490 kts | 113° |
| 2026-04-26 18:38 | 22.31965 | 65.79199 | 37000 ft | 490 kts | 113° |
| 2026-04-26 18:39 | 22.29316 | 65.85959 | 37000 ft | 490 kts | 113° |
| 2026-04-26 18:39 | 22.26651 | 65.92747 | 37000 ft | 490 kts | 113° |
| 2026-04-26 18:40 | 22.24007 | 65.99473 | 37000 ft | 490 kts | 113° |
| 2026-04-26 18:40 | 22.21347 | 66.06231 | 37000 ft | 490 kts | 113° |
| 2026-04-26 18:41 | 22.18659 | 66.13048 | 37000 ft | 490 kts | 113° |
| 2026-04-26 18:41 | 22.15988 | 66.19813 | 37000 ft | 490 kts | 113° |
| 2026-04-26 18:42 | 22.13315 | 66.26577 | 37000 ft | 490 kts | 113° |
| 2026-04-26 18:42 | 22.10643 | 66.33325 | 37000 ft | 490 kts | 113° |
| 2026-04-26 18:43 | 22.07964 | 66.40082 | 37000 ft | 490 kts | 113° |
| 2026-04-26 18:43 | 22.05300 | 66.46791 | 37000 ft | 490 kts | 113° |
| 2026-04-26 18:44 | 22.02624 | 66.53528 | 37000 ft | 490 kts | 113° |
| 2026-04-26 18:44 | 21.99932 | 66.60289 | 37000 ft | 490 kts | 113° |
| 2026-04-26 18:45 | 21.97245 | 66.67029 | 37000 ft | 490 kts | 113° |
| 2026-04-26 18:45 | 21.94551 | 66.73777 | 37000 ft | 490 kts | 113° |
| 2026-04-26 18:46 | 21.91859 | 66.80512 | 37000 ft | 490 kts | 113° |
| 2026-04-26 18:46 | 21.89160 | 66.87255 | 37000 ft | 490 kts | 113° |
| 2026-04-26 18:47 | 21.86486 | 66.93926 | 37000 ft | 490 kts | 113° |
| 2026-04-26 18:47 | 21.83778 | 67.00674 | 37000 ft | 490 kts | 113° |
| 2026-04-26 18:48 | 21.81071 | 67.07409 | 37000 ft | 490 kts | 113° |
| 2026-04-26 18:48 | 21.78363 | 67.14137 | 37000 ft | 490 kts | 113° |
| 2026-04-26 18:49 | 21.75651 | 67.20867 | 37000 ft | 490 kts | 113° |
| 2026-04-26 18:49 | 21.72940 | 67.27583 | 37000 ft | 490 kts | 114° |
| 2026-04-26 18:50 | 21.70253 | 67.34232 | 37000 ft | 490 kts | 114° |
| 2026-04-26 18:50 | 21.67522 | 67.40980 | 37000 ft | 490 kts | 114° |
| 2026-04-26 18:51 | 21.64799 | 67.47701 | 37000 ft | 490 kts | 114° |
| 2026-04-26 18:51 | 21.62076 | 67.54409 | 37000 ft | 490 kts | 114° |
| 2026-04-26 18:52 | 21.59348 | 67.61123 | 37000 ft | 490 kts | 114° |
| 2026-04-26 18:52 | 21.56634 | 67.67793 | 37000 ft | 490 kts | 114° |
| 2026-04-26 18:53 | 21.53926 | 67.74438 | 37000 ft | 490 kts | 114° |
| 2026-04-26 18:53 | 21.51176 | 67.81179 | 37000 ft | 490 kts | 114° |
| 2026-04-26 18:54 | 21.48432 | 67.87893 | 37000 ft | 490 kts | 114° |
| 2026-04-26 18:54 | 21.45692 | 67.94590 | 37000 ft | 490 kts | 114° |
| 2026-04-26 18:55 | 21.42951 | 68.01280 | 37000 ft | 490 kts | 114° |
| 2026-04-26 18:55 | 21.40210 | 68.07963 | 37000 ft | 490 kts | 114° |
| 2026-04-26 18:56 | 21.37469 | 68.14636 | 37000 ft | 490 kts | 114° |
| 2026-04-26 18:56 | 21.34712 | 68.21337 | 37000 ft | 490 kts | 114° |
| 2026-04-26 18:57 | 21.32891 | 68.25761 | 37000 ft | 490 kts | 114° |
| 2026-04-26 18:57 | 21.29202 | 68.34706 | 37000 ft | 490 kts | 114° |
| 2026-04-26 18:58 | 21.26465 | 68.41335 | 37000 ft | 490 kts | 114° |
| 2026-04-26 18:58 | 21.23705 | 68.48008 | 37000 ft | 490 kts | 114° |
| 2026-04-26 18:59 | 21.20948 | 68.54667 | 37000 ft | 490 kts | 114° |
| 2026-04-26 18:59 | 21.18172 | 68.61360 | 37000 ft | 490 kts | 114° |
| 2026-04-26 19:00 | 21.15408 | 68.68020 | 37000 ft | 490 kts | 114° |
| 2026-04-26 19:00 | 21.12633 | 68.74695 | 37000 ft | 490 kts | 114° |
| 2026-04-26 19:01 | 21.09880 | 68.81309 | 37000 ft | 490 kts | 114° |
| 2026-04-26 19:01 | 21.07103 | 68.87969 | 37000 ft | 490 kts | 114° |
| 2026-04-26 19:02 | 21.04327 | 68.94621 | 37000 ft | 490 kts | 114° |
| 2026-04-26 19:02 | 21.02461 | 68.99088 | 37000 ft | 490 kts | 114° |
| 2026-04-26 19:03 | 20.99224 | 69.06826 | 37000 ft | 490 kts | 114° |
| 2026-04-26 19:03 | 20.96720 | 69.13592 | 37001 ft | 490 kts | 108° |
| 2026-04-26 19:04 | 20.94616 | 69.20520 | 37000 ft | 490 kts | 108° |
| 2026-04-26 19:04 | 20.92508 | 69.27471 | 37000 ft | 490 kts | 108° |
| 2026-04-26 19:05 | 20.89379 | 69.37813 | 37000 ft | 490 kts | 108° |
| 2026-04-26 19:06 | 20.87279 | 69.44744 | 37000 ft | 490 kts | 108° |
| 2026-04-26 19:06 | 20.85174 | 69.51682 | 37000 ft | 490 kts | 108° |
| 2026-04-26 19:07 | 20.83067 | 69.58617 | 37000 ft | 490 kts | 108° |
| 2026-04-26 19:07 | 20.80960 | 69.65540 | 37000 ft | 490 kts | 108° |
| 2026-04-26 19:08 | 20.78848 | 69.72470 | 37000 ft | 490 kts | 108° |
| 2026-04-26 19:08 | 20.76737 | 69.79387 | 37000 ft | 490 kts | 108° |
| 2026-04-26 19:09 | 20.74636 | 69.86255 | 37000 ft | 490 kts | 108° |
| 2026-04-26 19:09 | 20.72517 | 69.93175 | 37000 ft | 490 kts | 108° |
| 2026-04-26 19:10 | 20.70393 | 70.00101 | 37000 ft | 490 kts | 108° |
| 2026-04-26 19:10 | 20.68271 | 70.07007 | 37000 ft | 490 kts | 108° |
| 2026-04-26 19:11 | 20.66142 | 70.13924 | 37000 ft | 490 kts | 108° |
| 2026-04-26 19:11 | 20.64014 | 70.20830 | 37000 ft | 490 kts | 108° |
| 2026-04-26 19:12 | 20.61882 | 70.27737 | 37000 ft | 490 kts | 108° |
| 2026-04-26 19:12 | 20.59748 | 70.34639 | 37000 ft | 490 kts | 108° |
| 2026-04-26 19:13 | 20.57611 | 70.41540 | 37000 ft | 490 kts | 108° |
| 2026-04-26 19:13 | 20.55470 | 70.48443 | 37000 ft | 490 kts | 108° |
| 2026-04-26 19:14 | 20.53326 | 70.55346 | 37000 ft | 490 kts | 108° |
| 2026-04-26 19:14 | 20.51195 | 70.62197 | 37000 ft | 490 kts | 108° |
| 2026-04-26 19:15 | 20.49046 | 70.69094 | 37000 ft | 490 kts | 108° |
| 2026-04-26 19:15 | 20.46908 | 70.75947 | 37000 ft | 490 kts | 108° |
| 2026-04-26 19:16 | 20.44742 | 70.82875 | 37000 ft | 490 kts | 108° |
| 2026-04-26 19:16 | 20.42584 | 70.89769 | 37000 ft | 490 kts | 108° |
| 2026-04-26 19:17 | 20.40425 | 70.96658 | 37000 ft | 490 kts | 108° |
| 2026-04-26 19:17 | 20.38276 | 71.03501 | 37000 ft | 490 kts | 108° |
| 2026-04-26 19:18 | 20.36109 | 71.10393 | 37000 ft | 490 kts | 108° |
| 2026-04-26 19:18 | 20.33938 | 71.17285 | 37000 ft | 490 kts | 108° |
| 2026-04-26 19:19 | 20.31769 | 71.24161 | 37000 ft | 490 kts | 109° |
| 2026-04-26 19:19 | 20.29592 | 71.31054 | 37000 ft | 490 kts | 109° |
| 2026-04-26 19:20 | 20.27447 | 71.37833 | 37000 ft | 490 kts | 109° |
| 2026-04-26 19:20 | 20.25257 | 71.44746 | 37000 ft | 490 kts | 109° |
| 2026-04-26 19:21 | 20.23070 | 71.51639 | 37000 ft | 490 kts | 109° |
| 2026-04-26 19:21 | 20.20241 | 71.58188 | 37003 ft | 489 kts | 128° |
| 2026-04-26 19:22 | 20.15685 | 71.63567 | 36999 ft | 489 kts | 133° |
| 2026-04-26 19:22 | 20.11068 | 71.68849 | 37000 ft | 489 kts | 133° |
| 2026-04-26 19:23 | 20.06424 | 71.74183 | 37000 ft | 489 kts | 133° |
| 2026-04-26 19:23 | 20.01800 | 71.79495 | 37000 ft | 489 kts | 133° |
| 2026-04-26 19:24 | 19.97207 | 71.84770 | 37000 ft | 489 kts | 133° |
| 2026-04-26 19:24 | 19.90267 | 71.92732 | 37000 ft | 489 kts | 133° |
| 2026-04-26 19:25 | 19.86422 | 71.97139 | 37000 ft | 489 kts | 133° |
| 2026-04-26 19:25 | 19.81016 | 72.03329 | 37000 ft | 489 kts | 133° |
| 2026-04-26 19:26 | 19.76297 | 72.08556 | 37002 ft | 489 kts | 137° |
| 2026-04-26 19:26 | 19.71239 | 72.13379 | 37000 ft | 489 kts | 138° |
| 2026-04-26 19:27 | 19.66167 | 72.18190 | 36951 ft | 487 kts | 138° |
| 2026-04-26 19:27 | 19.63682 | 72.20547 | 36342 ft | 484 kts | 138° |
| 2026-04-26 19:27 | 19.61160 | 72.22941 | 35405 ft | 489 kts | 138° |
| 2026-04-26 19:28 | 19.58612 | 72.25358 | 34485 ft | 492 kts | 138° |
| 2026-04-26 19:28 | 19.56070 | 72.27768 | 33571 ft | 494 kts | 138° |
| 2026-04-26 19:28 | 19.53492 | 72.30212 | 32610 ft | 496 kts | 138° |
| 2026-04-26 19:28 | 19.50908 | 72.32661 | 31615 ft | 498 kts | 138° |
| 2026-04-26 19:29 | 19.48313 | 72.35118 | 30569 ft | 500 kts | 138° |
| 2026-04-26 19:29 | 19.45710 | 72.37582 | 29588 ft | 501 kts | 138° |
| 2026-04-26 19:29 | 19.43122 | 72.40031 | 28894 ft | 495 kts | 138° |
| 2026-04-26 19:29 | 19.40595 | 72.42422 | 28172 ft | 490 kts | 138° |
| 2026-04-26 19:30 | 19.38060 | 72.44819 | 27436 ft | 486 kts | 138° |
| 2026-04-26 19:30 | 19.35557 | 72.47185 | 26735 ft | 481 kts | 138° |
| 2026-04-26 19:30 | 19.33078 | 72.49527 | 26044 ft | 476 kts | 138° |
| 2026-04-26 19:30 | 19.31413 | 72.51099 | 25582 ft | 472 kts | 138° |
| 2026-04-26 19:31 | 19.28174 | 72.54156 | 24638 ft | 466 kts | 138° |
| 2026-04-26 19:31 | 19.25767 | 72.56427 | 23928 ft | 461 kts | 138° |
| 2026-04-26 19:31 | 19.23384 | 72.58676 | 23215 ft | 456 kts | 138° |
| 2026-04-26 19:31 | 19.21069 | 72.60953 | 22481 ft | 452 kts | 134° |
| 2026-04-26 19:32 | 19.19199 | 72.63591 | 21755 ft | 447 kts | 119° |
| 2026-04-26 19:32 | 19.18106 | 72.66580 | 21052 ft | 443 kts | 103° |
| 2026-04-26 19:32 | 19.17867 | 72.69860 | 20330 ft | 438 kts | 85° |
| 2026-04-26 19:32 | 19.18520 | 72.72926 | 19622 ft | 433 kts | 69° |
| 2026-04-26 19:33 | 19.20002 | 72.75658 | 18886 ft | 428 kts | 51° |
| 2026-04-26 19:33 | 19.22186 | 72.77773 | 18160 ft | 423 kts | 33° |
| 2026-04-26 19:33 | 19.24839 | 72.79054 | 17438 ft | 418 kts | 15° |
| 2026-04-26 19:33 | 19.27698 | 72.79388 | 16701 ft | 413 kts | 356° |
| 2026-04-26 19:34 | 19.30489 | 72.78744 | 15980 ft | 408 kts | 338° |
| 2026-04-26 19:34 | 19.32879 | 72.77193 | 15357 ft | 402 kts | 318° |
| 2026-04-26 19:34 | 19.34603 | 72.74914 | 15066 ft | 396 kts | 300° |
| 2026-04-26 19:34 | 19.36074 | 72.72469 | 15001 ft | 397 kts | 307° |
| 2026-04-26 19:35 | 19.37754 | 72.70227 | 14990 ft | 378 kts | 308° |
| 2026-04-26 19:35 | 19.39126 | 72.67964 | 14996 ft | 357 kts | 296° |
| 2026-04-26 19:35 | 19.40005 | 72.65579 | 14991 ft | 337 kts | 287° |
| 2026-04-26 19:35 | 19.40592 | 72.63220 | 14768 ft | 326 kts | 283° |
| 2026-04-26 19:36 | 19.41178 | 72.60943 | 14528 ft | 317 kts | 287° |
| 2026-04-26 19:36 | 19.41656 | 72.59458 | 14319 ft | 313 kts | 290° |
| 2026-04-26 19:36 | 19.42823 | 72.56687 | 13823 ft | 308 kts | 298° |
| 2026-04-26 19:36 | 19.43908 | 72.54745 | 13434 ft | 305 kts | 303° |
| 2026-04-26 19:37 | 19.45123 | 72.52908 | 13028 ft | 303 kts | 307° |
| 2026-04-26 19:37 | 19.46417 | 72.51158 | 12641 ft | 301 kts | 309° |
| 2026-04-26 19:37 | 19.47760 | 72.49470 | 12230 ft | 299 kts | 310° |
| 2026-04-26 19:37 | 19.49127 | 72.47819 | 12021 ft | 295 kts | 311° |
| 2026-04-26 19:38 | 19.50483 | 72.46186 | 11998 ft | 296 kts | 311° |
| 2026-04-26 19:38 | 19.51894 | 72.44590 | 11997 ft | 297 kts | 314° |
| 2026-04-26 19:38 | 19.53346 | 72.43059 | 11667 ft | 298 kts | 315° |
| 2026-04-26 19:38 | 19.54841 | 72.41559 | 11290 ft | 295 kts | 316° |
| 2026-04-26 19:39 | 19.56316 | 72.40049 | 10885 ft | 293 kts | 315° |
| 2026-04-26 19:39 | 19.57739 | 72.38519 | 10472 ft | 291 kts | 314° |
| 2026-04-26 19:39 | 19.59147 | 72.36981 | 10113 ft | 288 kts | 314° |
| 2026-04-26 19:39 | 19.60523 | 72.35439 | 10002 ft | 287 kts | 312° |
| 2026-04-26 19:40 | 19.61884 | 72.33887 | 9995 ft | 288 kts | 313° |
| 2026-04-26 19:40 | 19.63299 | 72.32377 | 9998 ft | 288 kts | 315° |
| 2026-04-26 19:40 | 19.64745 | 72.30900 | 9999 ft | 288 kts | 316° |
| 2026-04-26 19:40 | 19.66100 | 72.29344 | 10001 ft | 288 kts | 306° |
| 2026-04-26 19:41 | 19.67015 | 72.27470 | 9996 ft | 288 kts | 287° |
| 2026-04-26 19:41 | 19.67202 | 72.25376 | 9999 ft | 287 kts | 263° |
| 2026-04-26 19:41 | 19.66536 | 72.23419 | 10002 ft | 287 kts | 237° |
| 2026-04-26 19:41 | 19.66130 | 72.22853 | 9998 ft | 287 kts | 228° |
| 2026-04-26 19:42 | 19.63227 | 72.21284 | 10003 ft | 288 kts | 186° |
| 2026-04-26 19:42 | 19.61242 | 72.21530 | 9998 ft | 289 kts | 161° |
| 2026-04-26 19:42 | 19.59527 | 72.22622 | 10010 ft | 290 kts | 138° |
| 2026-04-26 19:42 | 19.58084 | 72.24115 | 9996 ft | 290 kts | 135° |
| 2026-04-26 19:43 | 19.56652 | 72.25630 | 9999 ft | 291 kts | 136° |
| 2026-04-26 19:43 | 19.55195 | 72.27124 | 10000 ft | 291 kts | 136° |
| 2026-04-26 19:43 | 19.53730 | 72.28601 | 10000 ft | 291 kts | 137° |
| 2026-04-26 19:43 | 19.52255 | 72.30076 | 10000 ft | 291 kts | 137° |
| 2026-04-26 19:44 | 19.50785 | 72.31539 | 10004 ft | 291 kts | 137° |
| 2026-04-26 19:44 | 19.49305 | 72.33008 | 10000 ft | 291 kts | 137° |
| 2026-04-26 19:44 | 19.47829 | 72.34471 | 10003 ft | 291 kts | 137° |
| 2026-04-26 19:44 | 19.46347 | 72.35938 | 10000 ft | 291 kts | 137° |
| 2026-04-26 19:45 | 19.44870 | 72.37400 | 10000 ft | 291 kts | 137° |
| 2026-04-26 19:45 | 19.43394 | 72.38859 | 10000 ft | 291 kts | 137° |
| 2026-04-26 19:45 | 19.41915 | 72.40321 | 10000 ft | 291 kts | 137° |
| 2026-04-26 19:45 | 19.40434 | 72.41784 | 10004 ft | 291 kts | 137° |
| 2026-04-26 19:46 | 19.38956 | 72.43244 | 10000 ft | 291 kts | 137° |
| 2026-04-26 19:46 | 19.37494 | 72.44688 | 10000 ft | 291 kts | 137° |
| 2026-04-26 19:46 | 19.36015 | 72.46148 | 10000 ft | 291 kts | 137° |
| 2026-04-26 19:46 | 19.34536 | 72.47607 | 10000 ft | 291 kts | 137° |
| 2026-04-26 19:47 | 19.33052 | 72.49072 | 10000 ft | 291 kts | 137° |
| 2026-04-26 19:47 | 19.32558 | 72.49559 | 10003 ft | 291 kts | 137° |
| 2026-04-26 19:47 | 19.30093 | 72.51990 | 10000 ft | 291 kts | 137° |
| 2026-04-26 19:47 | 19.28613 | 72.53450 | 10000 ft | 291 kts | 137° |
| 2026-04-26 19:48 | 19.27132 | 72.54910 | 10000 ft | 291 kts | 137° |
| 2026-04-26 19:48 | 19.25649 | 72.56371 | 10000 ft | 291 kts | 137° |
| 2026-04-26 19:48 | 19.24173 | 72.57836 | 9999 ft | 291 kts | 136° |
| 2026-04-26 19:48 | 19.22857 | 72.59458 | 9998 ft | 291 kts | 124° |
| 2026-04-26 19:49 | 19.21962 | 72.61346 | 10000 ft | 291 kts | 109° |
| 2026-04-26 19:49 | 19.21620 | 72.63455 | 9999 ft | 291 kts | 92° |
| 2026-04-26 19:49 | 19.21572 | 72.65589 | 9999 ft | 291 kts | 90° |
| 2026-04-26 19:49 | 19.21555 | 72.67732 | 10000 ft | 291 kts | 90° |
| 2026-04-26 19:50 | 19.21539 | 72.69876 | 10000 ft | 291 kts | 90° |
| 2026-04-26 19:50 | 19.21525 | 72.72016 | 10000 ft | 291 kts | 90° |
| 2026-04-26 19:50 | 19.21515 | 72.73443 | 10000 ft | 291 kts | 90° |
| 2026-04-26 19:50 | 19.21497 | 72.76315 | 10000 ft | 291 kts | 90° |
| 2026-04-26 19:51 | 19.21488 | 72.77734 | 10000 ft | 291 kts | 90° |
| 2026-04-26 19:51 | 19.21474 | 72.79881 | 10000 ft | 291 kts | 90° |
| 2026-04-26 19:51 | 19.21460 | 72.82020 | 10000 ft | 291 kts | 90° |
| 2026-04-26 19:51 | 19.21445 | 72.84168 | 10000 ft | 291 kts | 90° |
| 2026-04-26 19:52 | 19.21431 | 72.86312 | 10000 ft | 291 kts | 90° |
| 2026-04-26 19:52 | 19.21417 | 72.88433 | 10000 ft | 291 kts | 90° |
| 2026-04-26 19:52 | 19.21402 | 72.90579 | 10000 ft | 292 kts | 90° |
| 2026-04-26 19:52 | 19.21387 | 72.92721 | 9999 ft | 292 kts | 90° |
| 2026-04-26 19:53 | 19.21371 | 72.94882 | 10000 ft | 292 kts | 90° |
| 2026-04-26 19:53 | 19.21355 | 72.97037 | 10000 ft | 292 kts | 90° |
| 2026-04-26 19:53 | 19.21339 | 72.99182 | 10000 ft | 292 kts | 90° |
| 2026-04-26 19:53 | 19.21323 | 73.01328 | 10000 ft | 291 kts | 90° |
| 2026-04-26 19:54 | 19.21307 | 73.03480 | 9896 ft | 292 kts | 90° |
| 2026-04-26 19:54 | 19.21290 | 73.05621 | 9443 ft | 294 kts | 90° |
| 2026-04-26 19:54 | 19.21273 | 73.07766 | 9094 ft | 289 kts | 90° |
| 2026-04-26 19:54 | 19.21256 | 73.09892 | 8681 ft | 287 kts | 90° |
| 2026-04-26 19:55 | 19.21239 | 73.11998 | 8264 ft | 286 kts | 90° |
| 2026-04-26 19:55 | 19.21222 | 73.14105 | 7836 ft | 284 kts | 90° |
| 2026-04-26 19:55 | 19.21216 | 73.16180 | 7434 ft | 282 kts | 89° |
| 2026-04-26 19:55 | 19.21163 | 73.18247 | 7086 ft | 279 kts | 97° |
| 2026-04-26 19:56 | 19.20505 | 73.20153 | 6992 ft | 278 kts | 124° |
| 2026-04-26 19:56 | 19.19110 | 73.21553 | 6998 ft | 278 kts | 150° |
| 2026-04-26 19:56 | 19.17281 | 73.22157 | 6999 ft | 277 kts | 176° |
| 2026-04-26 19:56 | 19.15415 | 73.21868 | 6999 ft | 276 kts | 201° |
| 2026-04-26 19:57 | 19.13838 | 73.20754 | 6998 ft | 275 kts | 227° |
| 2026-04-26 19:57 | 19.12849 | 73.19037 | 7015 ft | 276 kts | 250° |
| 2026-04-26 19:57 | 19.12262 | 73.17098 | 6988 ft | 276 kts | 253° |
| 2026-04-26 19:57 | 19.11708 | 73.15163 | 6992 ft | 276 kts | 253° |
| 2026-04-26 19:58 | 19.11141 | 73.13252 | 6980 ft | 264 kts | 252° |
| 2026-04-26 19:58 | 19.10599 | 73.11454 | 6970 ft | 248 kts | 252° |
| 2026-04-26 19:58 | 19.10083 | 73.09749 | 6814 ft | 240 kts | 252° |
| 2026-04-26 19:58 | 19.09579 | 73.08085 | 6593 ft | 234 kts | 252° |
| 2026-04-26 19:59 | 19.09268 | 73.06456 | 6355 ft | 225 kts | 264° |
| 2026-04-26 19:59 | 19.09196 | 73.04832 | 6102 ft | 217 kts | 269° |
| 2026-04-26 19:59 | 19.09167 | 73.03261 | 5859 ft | 207 kts | 268° |
| 2026-04-26 19:59 | 19.09123 | 73.01815 | 5578 ft | 185 kts | 268° |
| 2026-04-26 20:00 | 19.09084 | 73.00500 | 5300 ft | 175 kts | 269° |
| 2026-04-26 20:00 | 19.09068 | 72.99241 | 4970 ft | 171 kts | 269° |
| 2026-04-26 20:00 | 19.09051 | 72.97976 | 4564 ft | 172 kts | 269° |
| 2026-04-26 20:00 | 19.09030 | 72.96726 | 4159 ft | 172 kts | 269° |
| 2026-04-26 20:01 | 19.09006 | 72.95466 | 3763 ft | 172 kts | 269° |
| 2026-04-26 20:01 | 19.08941 | 72.94161 | 3092 ft | 184 kts | 267° |
| 2026-04-26 20:01 | 19.08896 | 72.92775 | 2402 ft | 193 kts | 270° |
| 2026-04-26 20:01 | 19.08886 | 72.91364 | 1852 ft | 191 kts | 270° |
| 2026-04-26 20:02 | 19.08884 | 72.89972 | 1166 ft | 190 kts | 270° |
| 2026-04-26 20:02 | 19.08885 | 72.88595 | 686 ft | 183 kts | 271° |
| 2026-04-26 20:02 | 19.08858 | 72.87284 | 197 ft | 175 kts | 269° |
| 2026-04-26 20:02 | 19.08847 | 72.86518 | 119 ft | 159 kts | 268° |
| 2026-04-26 20:03 | 19.09059 | 72.85203 | 34 ft | 86 kts | 275° |
| 2026-04-26 20:03 | 19.09013 | 72.85003 | 33 ft | 0 kts | 269° |
| 2026-04-26 20:03 | 19.09020 | 72.84997 | 33 ft | 2 kts | 318° |
| 2026-04-26 20:03 | 19.09039 | 72.85013 | 33 ft | 8 kts | 53° |
| 2026-04-26 20:04 | 19.09057 | 72.85069 | 34 ft | 1 kts | 77° |
| 2026-04-26 20:04 | 19.09165 | 72.85154 | 36 ft | 0 kts | 15° |